首页
METAR-TAF:

METAR-TAF

机场 :

里耶卡, 克罗地亚

纬度: 45-13N, 经度: 014-35E, 海拔: 85米

当前天气观测

该预报发布于26分钟前的01:00 UTC
风速2节,风向东转东南
温度 13°C
湿度 94%
气压 1019 hPa
能见度10公里或以上
1500米以下无云,无积雨云

METAR: LDRI 170100Z 11002KT CAVOK 13/12 Q1019

时间: 03:26 (01:26 UTC)

预报

该预报发布于2小时和1分钟前的23:25 UTC
预报有效从17日的 00点(UTC)到 18日的 00点(UTC)
风速2节,风向多变
能见度10公里或以上
1500米以下无云,无积雨云

TAF: LDRI 162325Z 1700/1800 VRB02KT CAVOK TX20/1712Z TN11/1702Z

超过4000个机场的气象观测和天气预报(METAR&TAF报告)。

可查询的气象台以黄色和红色小点在地图上表示。

将鼠标移到小点上方,可查看气象台名称。

然后点击查看天气观测和预报。

如需切换地图:点击带黑十字的绿色按钮放大地图;点击带横线的绿色按钮缩小地图;或者点击绿色箭头查看邻近地区的地图。


METAR-TAF: